createdAt,value
2019-01-21T00:00:02.816Z,0.00
2019-01-21T00:01:02.787Z,0.00
2019-01-21T00:02:02.765Z,0.00
2019-01-21T00:03:02.727Z,0.00
2019-01-21T00:04:02.698Z,0.00
2019-01-21T00:05:02.669Z,0.00
2019-01-21T00:06:02.646Z,0.00
2019-01-21T00:07:02.611Z,0.00
2019-01-21T00:08:02.589Z,0.00
2019-01-21T00:09:02.560Z,0.00
2019-01-21T00:10:02.531Z,0.00
2019-01-21T00:11:02.499Z,0.00
2019-01-21T00:12:02.473Z,0.00
2019-01-21T00:13:02.437Z,0.00
2019-01-21T00:14:02.417Z,0.00
2019-01-21T00:15:02.386Z,0.00
2019-01-21T00:16:02.357Z,0.00
2019-01-21T00:17:02.322Z,0.00
2019-01-21T00:18:02.295Z,0.00
2019-01-21T00:19:02.267Z,0.00
2019-01-21T00:20:02.233Z,0.00
2019-01-21T00:21:02.204Z,0.00
2019-01-21T00:22:02.175Z,0.00
2019-01-21T00:23:02.539Z,0.00
2019-01-21T00:24:02.117Z,0.00
2019-01-21T00:25:02.095Z,0.00
2019-01-21T00:26:02.061Z,0.00
2019-01-21T00:27:02.032Z,0.00
2019-01-21T00:28:02.002Z,0.00
2019-01-21T00:29:01.980Z,0.00
2019-01-21T00:30:01.945Z,0.00
2019-01-21T00:31:01.923Z,0.00
2019-01-21T00:32:01.890Z,0.00
2019-01-21T00:33:01.865Z,0.00
2019-01-21T00:34:01.830Z,0.00
2019-01-21T00:35:01.814Z,0.00
2019-01-21T00:36:01.769Z,0.00
2019-01-21T00:37:03.612Z,0.00
2019-01-21T00:38:01.714Z,0.00
2019-01-21T00:39:01.687Z,0.00
2019-01-21T00:40:01.655Z,0.00
2019-01-21T00:41:01.635Z,0.00
2019-01-21T00:42:01.605Z,0.00
2019-01-21T00:43:01.577Z,0.00
2019-01-21T00:44:01.540Z,0.00
2019-01-21T00:45:01.526Z,0.00
2019-01-21T00:46:01.489Z,0.00
2019-01-21T00:47:01.461Z,0.00
2019-01-21T00:48:01.427Z,0.00
2019-01-21T00:49:01.403Z,0.00
2019-01-21T00:50:01.369Z,0.00
2019-01-21T00:51:01.346Z,0.00
2019-01-21T00:52:01.314Z,0.00
2019-01-21T00:53:01.286Z,0.00
2019-01-21T00:54:01.252Z,0.00
2019-01-21T00:55:01.268Z,0.00
2019-01-21T00:56:01.194Z,0.00
2019-01-21T00:57:01.172Z,0.00
2019-01-21T00:58:01.137Z,0.00
2019-01-21T00:59:01.121Z,0.00
2019-01-21T01:00:01.082Z,0.00
2019-01-21T01:01:01.053Z,0.00
2019-01-21T01:02:01.030Z,0.00
2019-01-21T01:03:00.994Z,0.00
2019-01-21T01:04:00.971Z,0.00
2019-01-21T01:05:00.943Z,0.00
2019-01-21T01:06:00.908Z,0.00
2019-01-21T01:07:00.885Z,0.00
2019-01-21T01:08:00.858Z,0.00
2019-01-21T01:09:00.824Z,0.00
2019-01-21T01:10:00.801Z,0.00
2019-01-21T01:11:00.767Z,0.00
2019-01-21T01:12:00.744Z,0.00
2019-01-21T01:13:00.715Z,0.00
2019-01-21T01:14:00.684Z,0.00
2019-01-21T01:15:00.650Z,0.00
2019-01-21T01:16:00.621Z,0.00
2019-01-21T01:17:00.599Z,0.00
2019-01-21T01:18:00.573Z,0.00
2019-01-21T01:19:00.538Z,0.00
2019-01-21T01:20:00.516Z,0.00
2019-01-21T01:21:00.481Z,0.00
2019-01-21T01:22:00.461Z,0.00
2019-01-21T01:23:00.424Z,0.00
2019-01-21T01:24:00.398Z,0.00
2019-01-21T01:25:00.373Z,0.00
2019-01-21T01:26:00.349Z,0.00
2019-01-21T01:27:00.317Z,0.00
2019-01-21T01:28:00.288Z,0.00
2019-01-21T01:29:00.253Z,0.00
2019-01-21T01:30:00.242Z,0.00
2019-01-21T01:31:00.198Z,0.00
2019-01-21T01:32:00.172Z,0.00
2019-01-21T01:33:00.147Z,0.00
2019-01-21T01:34:00.115Z,0.00
2019-01-21T01:35:00.250Z,0.00
2019-01-21T01:36:00.062Z,0.00
2019-01-21T01:37:00.027Z,0.00
2019-01-21T01:38:00.002Z,0.00
2019-01-21T01:38:59.972Z,0.00
2019-01-21T01:39:59.944Z,0.00
2019-01-21T01:40:59.922Z,0.00
2019-01-21T01:41:59.893Z,0.00
2019-01-21T01:42:59.858Z,0.00
2019-01-21T01:43:59.839Z,0.00
2019-01-21T01:44:59.810Z,0.00
2019-01-21T01:45:59.782Z,0.00
2019-01-21T01:46:59.758Z,0.00
2019-01-21T01:47:59.725Z,0.00
2019-01-21T01:48:59.699Z,0.00
2019-01-21T01:49:59.670Z,0.00
2019-01-21T01:50:59.635Z,0.00
2019-01-21T01:51:59.612Z,0.00
2019-01-21T01:52:59.581Z,0.00
2019-01-21T01:53:59.554Z,0.00
2019-01-21T01:54:59.558Z,0.00
2019-01-21T01:55:59.502Z,0.00
2019-01-21T01:56:59.468Z,0.00
2019-01-21T01:57:59.448Z,0.00
2019-01-21T01:58:59.414Z,0.00
2019-01-21T01:59:59.393Z,0.00
2019-01-21T02:00:59.366Z,0.00
2019-01-21T02:01:59.328Z,0.00
2019-01-21T02:02:59.311Z,0.00
2019-01-21T02:03:59.274Z,0.00
2019-01-21T02:04:59.254Z,0.00
2019-01-21T02:05:59.218Z,0.00
2019-01-21T02:06:59.189Z,0.00
2019-01-21T02:07:59.166Z,0.00
2019-01-21T02:08:59.141Z,0.00
2019-01-21T02:09:59.106Z,0.00
2019-01-21T02:10:59.073Z,0.00
2019-01-21T02:11:59.058Z,0.00
2019-01-21T02:12:59.030Z,0.00
2019-01-21T02:13:59.004Z,0.00
2019-01-21T02:14:58.970Z,0.00
2019-01-21T02:15:58.943Z,0.00
2019-01-21T02:16:58.914Z,0.00
2019-01-21T02:17:58.889Z,0.00
2019-01-21T02:18:58.859Z,0.00
2019-01-21T02:19:58.833Z,0.00
2019-01-21T02:20:58.811Z,0.00
2019-01-21T02:21:58.782Z,0.00
2019-01-21T02:22:58.747Z,0.00
2019-01-21T02:23:58.721Z,0.00
2019-01-21T02:24:58.699Z,0.00
2019-01-21T02:25:58.670Z,0.00
2019-01-21T02:26:58.636Z,0.00
2019-01-21T02:27:58.617Z,0.00
2019-01-21T02:28:58.588Z,0.00
2019-01-21T02:29:58.563Z,0.00
2019-01-21T02:30:58.527Z,0.00
2019-01-21T02:31:58.501Z,0.00
2019-01-21T02:32:58.479Z,0.00
2019-01-21T02:33:58.445Z,0.00
2019-01-21T02:34:58.421Z,0.00
2019-01-21T02:35:58.389Z,0.00
2019-01-21T02:36:58.367Z,0.00
2019-01-21T02:37:58.341Z,0.00
2019-01-21T02:38:58.307Z,0.00
2019-01-21T02:39:58.278Z,0.00
2019-01-21T02:40:58.257Z,0.00
2019-01-21T02:41:58.223Z,0.00
2019-01-21T02:42:58.196Z,0.00
2019-01-21T02:43:58.167Z,0.00
2019-01-21T02:44:58.139Z,0.00
2019-01-21T02:45:58.115Z,0.00
2019-01-21T02:46:58.090Z,0.00
2019-01-21T02:48:00.300Z,0.00
2019-01-21T02:48:58.031Z,0.00
2019-01-21T02:49:58.007Z,0.00
2019-01-21T02:50:57.979Z,0.00
2019-01-21T02:51:57.944Z,0.00
2019-01-21T02:52:57.918Z,0.00
2019-01-21T02:53:57.889Z,0.00
2019-01-21T02:54:57.867Z,0.00
2019-01-21T02:55:57.833Z,0.00
2019-01-21T02:56:57.806Z,0.00
2019-01-21T02:57:57.783Z,0.00
2019-01-21T02:58:57.750Z,0.00
2019-01-21T02:59:57.728Z,0.00
2019-01-21T03:00:57.693Z,0.00
2019-01-21T03:01:57.665Z,0.00
2019-01-21T03:02:57.640Z,0.00
2019-01-21T03:03:57.614Z,0.00
2019-01-21T03:04:57.581Z,0.00
2019-01-21T03:05:57.558Z,0.00
2019-01-21T03:06:57.523Z,0.00
2019-01-21T03:07:57.500Z,0.00
2019-01-21T03:08:57.465Z,0.00
2019-01-21T03:09:57.446Z,0.00
2019-01-21T03:10:57.411Z,0.00
2019-01-21T03:11:57.434Z,0.00
2019-01-21T03:12:57.353Z,0.00
2019-01-21T03:13:57.332Z,0.00
2019-01-21T03:14:57.302Z,0.00
2019-01-21T03:15:57.275Z,0.00
2019-01-21T03:16:57.246Z,0.00
2019-01-21T03:17:57.214Z,0.00
2019-01-21T03:18:57.191Z,0.00
2019-01-21T03:19:57.156Z,0.00
2019-01-21T03:20:57.127Z,0.00
2019-01-21T03:21:57.104Z,0.00
2019-01-21T03:22:57.069Z,0.00
2019-01-21T03:23:57.047Z,0.00
2019-01-21T03:24:57.015Z,0.00
2019-01-21T03:25:56.994Z,0.00
2019-01-21T03:26:56.965Z,0.00
2019-01-21T03:27:56.935Z,0.00
2019-01-21T03:28:56.900Z,0.00
2019-01-21T03:29:56.874Z,0.00
2019-01-21T03:30:56.846Z,0.00
2019-01-21T03:31:56.819Z,0.00
2019-01-21T03:32:56.787Z,0.00
2019-01-21T03:33:56.764Z,0.00
2019-01-21T03:34:56.754Z,0.00
2019-01-21T03:35:56.706Z,0.00
2019-01-21T03:36:56.681Z,0.00
2019-01-21T03:37:56.647Z,0.00
2019-01-21T03:38:56.618Z,0.00
2019-01-21T03:39:56.585Z,0.00
2019-01-21T03:40:56.559Z,0.00
2019-01-21T03:41:56.544Z,0.00
2019-01-21T03:42:56.499Z,0.00
2019-01-21T03:43:56.468Z,0.00
2019-01-21T03:44:56.440Z,0.00
2019-01-21T03:45:56.418Z,0.00
2019-01-21T03:46:56.401Z,0.00
2019-01-21T03:47:56.358Z,0.00
2019-01-21T03:48:56.326Z,0.00
2019-01-21T03:49:56.304Z,0.00
2019-01-21T03:50:56.283Z,0.00
2019-01-21T03:51:56.248Z,0.00
2019-01-21T03:52:56.216Z,0.00
2019-01-21T03:53:56.193Z,0.00
2019-01-21T03:54:56.160Z,0.00
2019-01-21T03:55:56.126Z,0.00
2019-01-21T03:56:56.100Z,0.00
2019-01-21T03:57:56.078Z,0.00
2019-01-21T03:58:56.038Z,0.00
2019-01-21T03:59:56.015Z,0.00
2019-01-21T04:00:55.980Z,0.00
2019-01-21T04:01:55.952Z,0.00
2019-01-21T04:02:55.927Z,0.00
2019-01-21T04:03:55.894Z,0.00
2019-01-21T04:04:55.862Z,0.00
2019-01-21T04:05:55.837Z,0.00
2019-01-21T04:06:55.814Z,0.00
2019-01-21T04:07:56.796Z,0.00
2019-01-21T04:08:55.749Z,0.00
2019-01-21T04:09:55.721Z,0.00
2019-01-21T04:10:55.693Z,0.00
2019-01-21T04:11:55.668Z,0.00
2019-01-21T04:12:55.640Z,0.00
2019-01-21T04:13:55.611Z,0.00
2019-01-21T04:14:55.572Z,0.00
2019-01-21T04:15:55.546Z,0.00
2019-01-21T04:16:55.519Z,0.00
2019-01-21T04:17:55.498Z,0.00
2019-01-21T04:18:55.458Z,0.00
2019-01-21T04:19:55.432Z,0.00
2019-01-21T04:20:55.400Z,0.00
2019-01-21T04:21:55.373Z,0.00
2019-01-21T04:22:55.349Z,0.00
2019-01-21T04:23:55.313Z,0.00
2019-01-21T04:24:55.289Z,0.00
2019-01-21T04:25:55.254Z,0.00
2019-01-21T04:26:55.232Z,0.00
2019-01-21T04:27:55.202Z,0.00
2019-01-21T04:28:55.169Z,0.00
2019-01-21T04:29:55.146Z,0.00
2019-01-21T04:30:55.117Z,0.00
2019-01-21T04:31:55.079Z,0.00
2019-01-21T04:32:55.052Z,0.00
2019-01-21T04:33:55.025Z,0.00
2019-01-21T04:34:54.993Z,0.00
2019-01-21T04:35:54.973Z,0.00
2019-01-21T04:36:54.944Z,0.00
2019-01-21T04:37:54.907Z,0.00
2019-01-21T04:38:54.884Z,0.00
2019-01-21T04:39:54.849Z,0.00
2019-01-21T04:40:54.821Z,0.00
2019-01-21T04:41:54.799Z,0.00
2019-01-21T04:42:54.766Z,0.00
2019-01-21T04:43:54.731Z,0.00
2019-01-21T04:44:54.702Z,0.00
2019-01-21T04:45:54.679Z,0.00
2019-01-21T04:46:54.646Z,0.00
2019-01-21T04:47:54.616Z,0.00
2019-01-21T04:48:54.587Z,0.00
2019-01-21T04:49:54.555Z,0.00
2019-01-21T04:50:54.535Z,0.00
2019-01-21T04:51:54.501Z,0.00
2019-01-21T04:52:54.469Z,0.00
2019-01-21T04:53:54.447Z,0.00
2019-01-21T04:54:54.411Z,0.00
2019-01-21T04:55:54.384Z,0.00
2019-01-21T04:56:54.352Z,0.00
2019-01-21T04:57:54.323Z,0.00
2019-01-21T04:58:54.302Z,0.00
2019-01-21T04:59:54.269Z,0.00
2019-01-21T05:00:54.241Z,0.00
2019-01-21T05:01:54.211Z,0.00
2019-01-21T05:02:54.183Z,0.00
2019-01-21T05:03:54.163Z,0.00
2019-01-21T05:04:54.120Z,0.00
2019-01-21T05:05:54.094Z,0.00
2019-01-21T05:06:54.060Z,0.00
2019-01-21T05:07:54.031Z,0.00
2019-01-21T05:08:54.023Z,0.00
2019-01-21T05:09:53.970Z,0.00
2019-01-21T05:10:53.942Z,0.00
2019-01-21T05:11:53.910Z,0.00
2019-01-21T05:12:53.884Z,0.00
2019-01-21T05:13:53.853Z,0.00
2019-01-21T05:14:53.828Z,0.00
2019-01-21T05:15:53.803Z,0.00
2019-01-21T05:16:53.767Z,0.00
2019-01-21T05:17:53.736Z,0.00
2019-01-21T05:18:53.706Z,0.00
2019-01-21T05:19:53.679Z,0.00
2019-01-21T05:20:53.649Z,0.00
2019-01-21T05:21:53.619Z,0.00
2019-01-21T05:22:53.590Z,0.00
2019-01-21T05:23:53.565Z,0.00
2019-01-21T05:24:53.536Z,0.00
2019-01-21T05:25:53.504Z,0.00
2019-01-21T05:26:53.475Z,0.00
2019-01-21T05:27:53.447Z,0.00
2019-01-21T05:28:53.416Z,0.00
2019-01-21T05:29:53.385Z,0.00
2019-01-21T05:30:53.363Z,0.00
2019-01-21T05:31:53.327Z,0.00
2019-01-21T05:32:53.299Z,0.00
2019-01-21T05:33:53.277Z,0.00
2019-01-21T05:34:53.241Z,0.00
2019-01-21T05:35:53.208Z,0.00
2019-01-21T05:36:53.183Z,0.00
2019-01-21T05:37:53.154Z,0.00
2019-01-21T05:38:53.126Z,0.00
2019-01-21T05:39:53.096Z,0.00
2019-01-21T05:40:53.061Z,0.00
2019-01-21T05:41:53.029Z,0.00
2019-01-21T05:42:53.006Z,0.00
2019-01-21T05:43:52.979Z,0.00
2019-01-21T05:44:52.951Z,0.00
2019-01-21T05:45:52.920Z,0.00
2019-01-21T05:46:52.888Z,0.00
2019-01-21T05:47:52.859Z,0.00
2019-01-21T05:48:52.830Z,0.00
2019-01-21T05:49:52.794Z,0.00
2019-01-21T05:50:52.765Z,0.00
2019-01-21T05:51:52.733Z,0.00
2019-01-21T05:52:52.710Z,0.00
2019-01-21T05:53:52.676Z,0.00
2019-01-21T05:54:52.641Z,0.00
2019-01-21T05:55:52.623Z,0.00
2019-01-21T05:56:52.596Z,0.00
2019-01-21T05:57:52.558Z,0.00
2019-01-21T05:58:52.534Z,0.00
2019-01-21T05:59:52.505Z,0.00
2019-01-21T06:00:52.475Z,0.00
2019-01-21T06:01:52.446Z,0.00
2019-01-21T06:02:52.414Z,0.00
2019-01-21T06:03:52.386Z,0.00
2019-01-21T06:04:52.354Z,0.00
2019-01-21T06:05:52.318Z,0.00
2019-01-21T06:06:52.296Z,0.00
2019-01-21T06:07:52.268Z,0.00
2019-01-21T06:08:52.229Z,0.00
2019-01-21T06:09:52.206Z,0.00
2019-01-21T06:10:52.174Z,0.00
2019-01-21T06:11:52.139Z,0.00
2019-01-21T06:12:52.114Z,0.00
2019-01-21T06:13:52.082Z,0.00
2019-01-21T06:14:52.051Z,0.00
2019-01-21T06:15:52.022Z,0.00
2019-01-21T06:16:51.993Z,0.00
2019-01-21T06:17:51.968Z,0.00
2019-01-21T06:18:57.101Z,0.00
2019-01-21T06:19:51.910Z,0.00
2019-01-21T06:20:51.879Z,0.00
2019-01-21T06:21:51.846Z,0.00
2019-01-21T06:22:51.812Z,0.00
2019-01-21T06:23:51.783Z,0.00
2019-01-21T06:24:51.754Z,0.00
2019-01-21T06:25:51.726Z,0.00
2019-01-21T06:26:51.697Z,0.00
2019-01-21T06:27:51.668Z,0.00
2019-01-21T06:28:51.641Z,0.00
2019-01-21T06:29:51.608Z,0.00
2019-01-21T06:30:51.574Z,0.00
2019-01-21T06:31:51.549Z,0.00
2019-01-21T06:32:51.516Z,0.00
2019-01-21T06:33:51.491Z,0.00
2019-01-21T06:34:51.450Z,0.00
2019-01-21T06:35:51.424Z,0.00
2019-01-21T06:36:51.396Z,4.00
2019-01-21T06:37:51.370Z,4.00
2019-01-21T06:38:51.335Z,0.00
2019-01-21T06:39:51.307Z,0.00
2019-01-21T06:40:51.278Z,4.00
2019-01-21T06:41:51.251Z,4.00
2019-01-21T06:42:51.222Z,4.00
2019-01-21T06:43:51.185Z,4.00
2019-01-21T06:44:51.163Z,4.00
2019-01-21T06:45:51.134Z,8.00
2019-01-21T06:46:51.095Z,8.00
2019-01-21T06:47:51.072Z,12.00
2019-01-21T06:48:51.036Z,12.00
2019-01-21T06:49:51.007Z,16.00
2019-01-21T06:50:50.976Z,16.00
2019-01-21T06:51:50.950Z,20.00
2019-01-21T06:52:50.918Z,24.00
2019-01-21T06:53:50.895Z,28.00
2019-01-21T06:54:50.863Z,32.00
2019-01-21T06:55:50.825Z,36.00
2019-01-21T06:56:50.795Z,44.00
2019-01-21T06:57:50.767Z,48.00
2019-01-21T06:58:50.735Z,60.00
2019-01-21T06:59:50.706Z,68.00
2019-01-21T07:00:50.681Z,76.00
2019-01-21T07:01:50.653Z,84.00
2019-01-21T07:02:50.624Z,96.00
2019-01-21T07:03:50.594Z,108.00
2019-01-21T07:04:50.583Z,120.00
2019-01-21T07:05:50.533Z,136.00
2019-01-21T07:07:50.471Z,164.00
2019-01-21T07:08:50.443Z,184.00
2019-01-21T07:09:50.407Z,204.00
2019-01-21T07:10:50.375Z,220.00
2019-01-21T07:11:50.355Z,244.00
2019-01-21T07:12:50.320Z,264.00
2019-01-21T07:13:50.292Z,284.00
2019-01-21T07:14:50.264Z,308.00
2019-01-21T07:15:50.225Z,336.00
2019-01-21T07:16:50.204Z,360.00
2019-01-21T07:17:50.185Z,388.00
2019-01-21T07:18:50.139Z,412.00
2019-01-21T07:19:50.107Z,440.00
2019-01-21T07:20:50.082Z,472.00
2019-01-21T07:21:50.053Z,500.00
2019-01-21T07:22:50.021Z,528.00
2019-01-21T07:23:49.989Z,560.00
2019-01-21T07:24:49.963Z,588.00
2019-01-21T07:25:49.931Z,624.00
2019-01-21T07:26:49.902Z,660.00
2019-01-21T07:27:49.868Z,688.00
2019-01-21T07:28:49.842Z,724.00
2019-01-21T07:29:49.813Z,756.00
2019-01-21T07:30:49.782Z,792.00
2019-01-21T07:31:49.745Z,824.00
2019-01-21T07:32:49.720Z,856.00
2019-01-21T07:33:49.689Z,892.00
2019-01-21T07:34:49.654Z,932.00
2019-01-21T07:35:49.626Z,968.00
2019-01-21T07:36:49.597Z,1000.00
2019-01-21T07:37:49.571Z,1040.00
2019-01-21T07:38:49.536Z,1076.00
2019-01-21T07:39:49.510Z,1116.00
2019-01-21T07:40:49.478Z,1152.00
2019-01-21T07:41:49.447Z,1188.00
2019-01-21T07:42:49.422Z,1228.00
2019-01-21T07:43:49.387Z,1268.00
2019-01-21T07:44:49.361Z,1308.00
2019-01-21T07:45:49.332Z,1344.00
2019-01-21T07:46:49.301Z,1388.00
2019-01-21T07:47:49.265Z,1424.00
2019-01-21T07:48:49.245Z,1464.00
2019-01-21T07:49:49.219Z,1500.00
2019-01-21T07:50:49.178Z,1540.00
2019-01-21T07:51:49.150Z,1580.00
2019-01-21T07:52:49.122Z,1620.00
2019-01-21T07:53:49.094Z,1664.00
2019-01-21T07:54:49.060Z,1700.00
2019-01-21T07:55:49.035Z,1740.00
2019-01-21T07:56:48.999Z,1780.00
2019-01-21T07:57:48.978Z,1816.00
2019-01-21T07:58:48.948Z,1852.00
2019-01-21T07:59:48.920Z,1888.00
2019-01-21T08:00:48.881Z,1928.00
2019-01-21T08:01:48.856Z,1960.00
2019-01-21T08:02:48.826Z,1996.00
2019-01-21T08:03:48.795Z,2032.00
2019-01-21T08:04:48.769Z,2072.00
2019-01-21T08:05:48.742Z,2116.00
2019-01-21T08:06:48.707Z,2164.00
2019-01-21T08:07:48.676Z,2228.00
2019-01-21T08:08:48.653Z,2292.00
2019-01-21T08:09:48.624Z,2348.00
2019-01-21T08:10:48.589Z,2396.00
2019-01-21T08:11:48.557Z,2452.00
2019-01-21T08:12:48.528Z,2576.00
2019-01-21T08:13:48.502Z,2744.00
2019-01-21T08:14:48.470Z,2904.00
2019-01-21T08:15:48.448Z,2988.00
2019-01-21T08:16:48.412Z,3052.00
2019-01-21T08:17:48.422Z,3112.00
2019-01-21T08:18:48.359Z,3184.00
2019-01-21T08:19:48.328Z,3252.00
2019-01-21T08:20:48.304Z,3316.00
2019-01-21T08:21:48.268Z,3396.00
2019-01-21T08:22:48.243Z,3468.00
2019-01-21T08:23:48.217Z,3540.00
2019-01-21T08:24:48.183Z,3616.00
2019-01-21T08:25:48.153Z,3704.00
2019-01-21T08:26:48.135Z,3792.00
2019-01-21T08:27:48.102Z,3872.00
2019-01-21T08:28:48.076Z,3972.00
2019-01-21T08:29:48.046Z,4072.00
2019-01-21T08:30:48.014Z,4164.00
2019-01-21T08:31:47.991Z,4272.00
2019-01-21T08:32:47.962Z,4352.00
2019-01-21T08:33:47.927Z,4424.00
2019-01-21T08:34:47.899Z,4520.00
2019-01-21T08:35:47.870Z,4588.00
2019-01-21T08:36:47.845Z,4696.00
2019-01-21T08:37:47.816Z,4836.00
2019-01-21T08:38:47.791Z,4904.00
2019-01-21T08:39:48.732Z,5060.00
2019-01-21T08:40:47.742Z,5240.00
2019-01-21T08:41:47.711Z,5392.00
2019-01-21T08:42:47.682Z,5532.00
2019-01-21T08:43:47.653Z,5504.00
2019-01-21T08:44:47.627Z,5468.00
2019-01-21T08:45:47.609Z,5660.00
2019-01-21T08:46:47.579Z,6228.00
2019-01-21T08:47:47.548Z,6492.00
2019-01-21T08:48:47.525Z,6912.00
2019-01-21T08:49:47.500Z,7196.00
2019-01-21T08:50:47.474Z,7284.00
2019-01-21T08:51:47.442Z,7336.00
2019-01-21T08:52:47.420Z,7872.00
2019-01-21T08:53:47.391Z,8076.00
2019-01-21T08:54:47.369Z,8232.00
2019-01-21T08:55:47.340Z,8788.00
2019-01-21T08:56:47.314Z,8964.00
2019-01-21T08:57:47.289Z,8792.00
2019-01-21T08:58:47.264Z,8976.00
2019-01-21T08:59:47.239Z,9552.00
2019-01-21T09:00:47.213Z,9876.00
2019-01-21T09:01:47.188Z,9576.00
2019-01-21T09:02:47.156Z,10648.00
2019-01-21T09:03:47.127Z,10744.00
2019-01-21T09:04:47.108Z,10064.00
2019-01-21T09:05:47.089Z,10544.00
2019-01-21T09:06:47.054Z,10032.00
2019-01-21T09:07:47.026Z,10584.00
2019-01-21T09:08:47.000Z,10516.00
2019-01-21T09:09:46.974Z,9404.00
2019-01-21T09:10:46.952Z,10332.00
2019-01-21T09:11:46.920Z,9560.00
2019-01-21T09:12:46.901Z,9400.00
2019-01-21T09:13:46.872Z,10032.00
2019-01-21T09:14:46.845Z,10136.00
2019-01-21T09:15:46.823Z,9820.00
2019-01-21T09:16:46.791Z,10320.00
2019-01-21T09:17:46.775Z,10440.00
2019-01-21T09:18:46.746Z,9504.00
2019-01-21T09:19:46.714Z,8504.00
2019-01-21T09:20:46.697Z,7880.00
2019-01-21T09:21:46.669Z,7080.00
2019-01-21T09:22:46.647Z,7212.00
2019-01-21T09:23:46.612Z,7484.00
2019-01-21T09:24:46.594Z,6884.00
2019-01-21T09:25:46.562Z,7280.00
2019-01-21T09:26:46.532Z,9136.00
2019-01-21T09:27:46.510Z,10604.00
2019-01-21T09:28:46.484Z,10440.00
2019-01-21T09:29:46.461Z,9168.00
2019-01-21T09:30:46.427Z,7988.00
2019-01-21T09:31:46.411Z,7236.00
2019-01-21T09:32:46.385Z,7596.00
2019-01-21T09:33:46.356Z,7864.00
2019-01-21T09:34:46.327Z,7600.00
2019-01-21T09:35:46.302Z,6548.00
2019-01-21T09:36:46.289Z,8392.00
2019-01-21T09:37:46.251Z,10152.00
2019-01-21T09:38:47.255Z,11736.00
2019-01-21T09:39:46.199Z,10188.00
2019-01-21T09:40:46.179Z,7708.00
2019-01-21T09:41:46.156Z,8320.00
2019-01-21T09:42:46.128Z,8660.00
2019-01-21T09:43:46.096Z,9936.00
2019-01-21T09:44:46.077Z,11476.00
2019-01-21T09:45:46.051Z,11996.00
2019-01-21T09:46:46.022Z,12036.00
2019-01-21T09:47:46.001Z,14408.00
2019-01-21T09:48:45.971Z,16128.00
2019-01-21T09:49:45.946Z,16672.00
2019-01-21T09:50:45.914Z,16384.00
2019-01-21T09:51:45.891Z,16320.00
2019-01-21T09:52:45.865Z,16256.00
2019-01-21T09:53:45.837Z,18240.00
2019-01-21T09:54:45.811Z,20096.00
2019-01-21T09:55:45.788Z,20896.00
2019-01-21T09:56:45.766Z,19712.00
2019-01-21T09:57:45.740Z,19264.00
2019-01-21T09:58:45.708Z,20640.00
2019-01-21T09:59:45.689Z,19424.00
2019-01-21T10:00:45.655Z,19968.00
2019-01-21T10:01:45.630Z,21088.00
2019-01-21T10:02:45.611Z,22848.00
2019-01-21T10:03:45.585Z,20896.00
2019-01-21T10:04:45.556Z,19360.00
2019-01-21T10:05:45.536Z,20640.00
2019-01-21T10:06:45.505Z,23104.00
2019-01-21T10:07:45.483Z,25408.00
2019-01-21T10:08:45.458Z,25760.00
2019-01-21T10:09:45.439Z,27232.00
2019-01-21T10:10:45.406Z,27648.00
2019-01-21T10:11:45.378Z,29344.00
2019-01-21T10:12:45.349Z,31296.00
2019-01-21T10:13:45.324Z,31328.00
2019-01-21T10:14:45.305Z,29952.00
2019-01-21T10:15:45.273Z,30912.00
2019-01-21T10:16:45.253Z,32096.00
2019-01-21T10:17:45.226Z,33600.00
2019-01-21T10:18:45.199Z,34304.00
2019-01-21T10:19:50.472Z,34624.00
2019-01-21T10:20:45.148Z,35136.00
2019-01-21T10:21:45.132Z,35392.00
2019-01-21T10:22:45.100Z,36000.00
2019-01-21T10:23:45.081Z,35264.00
2019-01-21T10:24:45.055Z,36064.00
2019-01-21T10:25:45.027Z,36768.00
2019-01-21T10:26:45.002Z,37376.00
2019-01-21T10:27:44.976Z,37792.00
2019-01-21T10:28:44.959Z,37600.00
2019-01-21T10:29:44.929Z,37632.00
2019-01-21T10:30:44.905Z,38400.00
2019-01-21T10:31:44.883Z,38464.00
2019-01-21T10:32:44.855Z,38912.00
2019-01-21T10:33:44.836Z,38496.00
2019-01-21T10:34:44.811Z,38048.00
2019-01-21T10:35:44.785Z,37856.00
2019-01-21T10:36:44.763Z,37536.00
2019-01-21T10:37:44.734Z,37568.00
2019-01-21T10:38:44.712Z,37248.00
2019-01-21T10:39:44.690Z,38272.00
2019-01-21T10:40:44.667Z,38496.00
2019-01-21T10:41:44.642Z,38336.00
2019-01-21T10:42:44.620Z,38080.00
2019-01-21T10:43:44.591Z,37952.00
2019-01-21T10:44:44.572Z,37408.00
2019-01-21T10:45:44.541Z,37344.00
2019-01-21T10:46:44.517Z,37856.00
2019-01-21T10:47:44.495Z,38720.00
2019-01-21T10:48:44.473Z,39104.00
2019-01-21T10:49:44.446Z,39712.00
2019-01-21T10:50:44.420Z,39744.00
2019-01-21T10:51:44.404Z,39712.00
2019-01-21T10:52:44.381Z,38944.00
2019-01-21T10:53:44.352Z,38272.00
2019-01-21T10:54:44.327Z,38208.00
2019-01-21T10:55:44.308Z,36352.00
2019-01-21T10:56:44.290Z,36480.00
2019-01-21T10:57:44.260Z,36704.00
2019-01-21T10:58:44.241Z,36384.00
2019-01-21T10:59:44.213Z,37184.00
2019-01-21T11:00:44.185Z,37088.00
2019-01-21T11:01:44.165Z,36000.00
2019-01-21T11:02:44.137Z,35296.00
2019-01-21T11:03:44.121Z,34944.00
2019-01-21T11:04:44.092Z,34656.00
2019-01-21T11:05:44.079Z,34336.00
2019-01-21T11:06:44.046Z,33920.00
2019-01-21T11:07:44.025Z,33344.00
2019-01-21T11:08:44.003Z,33344.00
2019-01-21T11:09:43.989Z,33632.00
2019-01-21T11:10:43.950Z,33216.00
2019-01-21T11:11:43.935Z,33152.00
2019-01-21T11:12:43.906Z,31648.00
2019-01-21T11:13:44.410Z,29856.00
2019-01-21T11:14:43.863Z,27168.00
2019-01-21T11:15:43.839Z,23968.00
2019-01-21T11:16:43.822Z,20576.00
2019-01-21T11:17:43.800Z,18656.00
2019-01-21T11:18:43.774Z,17344.00
2019-01-21T11:19:43.745Z,15556.00
2019-01-21T11:20:43.723Z,14684.00
2019-01-21T11:21:43.707Z,13932.00
2019-01-21T11:22:43.674Z,13064.00
2019-01-21T11:23:43.664Z,12276.00
2019-01-21T11:24:43.636Z,11612.00
2019-01-21T11:25:43.607Z,11180.00
2019-01-21T11:26:43.598Z,10876.00
2019-01-21T11:27:43.569Z,10736.00
2019-01-21T11:28:43.547Z,10576.00
2019-01-21T11:29:43.524Z,10520.00
2019-01-21T11:30:43.501Z,10500.00
2019-01-21T11:31:43.474Z,10460.00
2019-01-21T11:32:43.450Z,10356.00
2019-01-21T11:33:43.441Z,10224.00
2019-01-21T11:34:43.402Z,10096.00
2019-01-21T11:35:43.379Z,10020.00
2019-01-21T11:36:43.364Z,9984.00
2019-01-21T11:37:43.338Z,9968.00
2019-01-21T11:38:43.324Z,9988.00
2019-01-21T11:39:43.300Z,9908.00
2019-01-21T11:40:43.271Z,9864.00
2019-01-21T11:41:43.253Z,9812.00
2019-01-21T11:42:43.231Z,9836.00
2019-01-21T11:43:43.206Z,9792.00
2019-01-21T11:44:43.186Z,9744.00
2019-01-21T11:45:43.168Z,9736.00
2019-01-21T11:46:43.135Z,9720.00
2019-01-21T11:47:43.119Z,9724.00
2019-01-21T11:48:43.293Z,9704.00
2019-01-21T11:49:43.077Z,9632.00
2019-01-21T11:50:43.056Z,9576.00
2019-01-21T11:51:43.034Z,9580.00
2019-01-21T11:52:43.011Z,9536.00
2019-01-21T11:53:42.991Z,9516.00
2019-01-21T11:54:42.963Z,9512.00
2019-01-21T11:55:42.940Z,9536.00
2019-01-21T11:56:42.918Z,9512.00
2019-01-21T11:57:42.902Z,9528.00
2019-01-21T11:58:42.880Z,9476.00
2019-01-21T11:59:43.157Z,9412.00
2019-01-21T12:00:42.836Z,9280.00
2019-01-21T12:01:42.809Z,9312.00
2019-01-21T12:02:42.793Z,9320.00
2019-01-21T12:03:42.772Z,9308.00
2019-01-21T12:04:42.744Z,9268.00
2019-01-21T12:05:42.721Z,9268.00
2019-01-21T12:06:42.704Z,9284.00
2019-01-21T12:07:42.682Z,9232.00
2019-01-21T12:08:42.660Z,9180.00
2019-01-21T12:09:42.641Z,9168.00
2019-01-21T12:10:42.612Z,9168.00
2019-01-21T12:11:42.593Z,9224.00
2019-01-21T12:12:42.570Z,9244.00
2019-01-21T12:13:42.548Z,9400.00
2019-01-21T12:14:42.532Z,9648.00
2019-01-21T12:15:42.506Z,9828.00
2019-01-21T12:16:42.484Z,9760.00
2019-01-21T12:17:42.471Z,9608.00
2019-01-21T12:18:42.447Z,9520.00
2019-01-21T12:19:42.418Z,9372.00
2019-01-21T12:20:42.395Z,9220.00
2019-01-21T12:21:42.383Z,9132.00
2019-01-21T12:22:42.361Z,9048.00
2019-01-21T12:23:42.341Z,8996.00
2019-01-21T12:24:42.316Z,8884.00
2019-01-21T12:25:42.293Z,8928.00
2019-01-21T12:26:42.273Z,8984.00
2019-01-21T12:27:42.255Z,8948.00
2019-01-21T12:28:42.225Z,8956.00
2019-01-21T12:29:42.208Z,8956.00
2019-01-21T12:30:42.186Z,9004.00
2019-01-21T12:31:42.160Z,9064.00
2019-01-21T12:32:42.144Z,8980.00
2019-01-21T12:33:42.125Z,8872.00
2019-01-21T12:34:42.099Z,8800.00
2019-01-21T12:35:42.076Z,8840.00
2019-01-21T12:36:42.059Z,8804.00
2019-01-21T12:37:42.036Z,8748.00
2019-01-21T12:38:42.009Z,8692.00
2019-01-21T12:39:41.992Z,8668.00
2019-01-21T12:40:41.966Z,8576.00